Terminal Aerodrome Forecast
Issued by NWS Sioux Falls, SD

Home | Current Version | Previous Version | Graphics & Text | Print | Product List | Glossary On
Versions: 1 2 3 4 5 6 7 8 9 10 11 12 13 14 15 16 17 18 19 20 21 22 23
000
FTUS43 KFSD 270520
TAFFSD
TAF
KFSD 270520Z 2706/2806 36012G18KT 2SM -SN BR OVC012
      TEMPO 2706/2708 1SM -SN BR VV007
     FM271000 34013G17KT 4SM -SN OVC018
     FM271300 32012KT P6SM OVC025
     FM271700 29010KT P6SM SCT020 SCT050
     FM272200 23005KT P6SM SCT025
     FM280200 19004KT P6SM SCT025 BKN150=

USA.gov is the U.S. government's official web portal to all federal, state and local government web resources and services.